createdAt,value
2018-09-08T00:00:34.516Z,71.80
2018-09-08T00:01:40.055Z,71.60
2018-09-08T00:02:45.435Z,71.50
2018-09-08T00:03:51.861Z,71.50
2018-09-08T00:04:58.336Z,71.40
2018-09-08T00:06:05.510Z,71.30
2018-09-08T00:07:16.383Z,71.00
2018-09-08T00:08:22.640Z,71.10
2018-09-08T00:09:30.514Z,71.00
2018-09-08T00:10:37.546Z,70.90
2018-09-08T00:11:42.637Z,70.90
2018-09-08T00:12:48.233Z,71.30
2018-09-08T00:13:53.594Z,70.80
2018-09-08T00:15:03.913Z,70.50
2018-09-08T00:16:14.367Z,70.70
2018-09-08T00:17:24.752Z,70.60
2018-09-08T00:18:36.015Z,70.70
2018-09-08T00:19:46.585Z,70.80
2018-09-08T00:20:56.730Z,70.90
2018-09-08T00:22:06.744Z,70.90
2018-09-08T00:23:17.020Z,70.80
2018-09-08T00:24:27.558Z,71.20
2018-09-08T00:25:38.295Z,71.50
2018-09-08T00:26:42.493Z,71.20
2018-09-08T00:28:06.604Z,71.40
2018-09-08T00:29:16.697Z,71.60
2018-09-08T00:30:22.609Z,71.60
2018-09-08T00:31:28.040Z,71.70
2018-09-08T00:32:33.887Z,71.60
2018-09-08T00:33:39.215Z,71.60
2018-09-08T00:34:44.936Z,71.60
2018-09-08T00:35:49.964Z,71.60
2018-09-08T00:36:55.373Z,72.80
2018-09-08T00:38:00.523Z,73.90
2018-09-08T00:39:07.253Z,75.10
2018-09-08T00:40:13.392Z,76.20
2018-09-08T00:41:19.044Z,77.40
2018-09-08T00:42:24.236Z,78.50
2018-09-08T00:43:29.605Z,79.50
2018-09-08T00:44:34.734Z,80.20
2018-09-08T00:45:40.272Z,80.80
2018-09-08T00:46:46.384Z,81.60
2018-09-08T00:47:51.786Z,81.90
2018-09-08T00:48:57.564Z,82.60
2018-09-08T00:50:02.895Z,83.50
2018-09-08T00:51:08.946Z,84.00
2018-09-08T00:52:14.108Z,84.10
2018-09-08T00:53:20.596Z,84.50
2018-09-08T00:54:25.738Z,85.00
2018-09-08T00:55:30.888Z,85.60
2018-09-08T00:56:36.747Z,85.60
2018-09-08T00:57:42.065Z,85.60
2018-09-08T00:58:52.607Z,85.60
2018-09-08T01:00:00.164Z,85.90
2018-09-08T01:01:05.605Z,85.90
2018-09-08T01:02:11.831Z,86.00
2018-09-08T01:03:18.117Z,86.50
2018-09-08T01:04:23.233Z,86.70
2018-09-08T01:05:28.498Z,87.20
2018-09-08T01:06:33.784Z,87.50
2018-09-08T01:07:39.173Z,88.10
2018-09-08T01:08:44.362Z,88.30
2018-09-08T01:09:49.529Z,88.60
2018-09-08T01:10:54.684Z,89.20
2018-09-08T01:12:00.944Z,89.20
2018-09-08T01:13:06.534Z,89.10
2018-09-08T01:14:12.105Z,89.10
2018-09-08T01:15:18.140Z,89.40
2018-09-08T01:16:23.300Z,90.00
2018-09-08T01:17:28.597Z,90.20
2018-09-08T01:18:38.019Z,90.20
2018-09-08T01:19:43.288Z,90.00
2018-09-08T01:20:49.398Z,90.00
2018-09-08T01:21:54.680Z,90.00
2018-09-08T01:23:00.446Z,89.90
2018-09-08T01:24:05.633Z,89.40
2018-09-08T01:25:10.990Z,89.80
2018-09-08T01:26:18.095Z,90.10
2018-09-08T01:27:23.344Z,89.90
2018-09-08T01:28:30.147Z,89.80
2018-09-08T01:29:35.257Z,90.00
2018-09-08T01:30:40.389Z,90.20
2018-09-08T01:31:45.524Z,90.00
2018-09-08T01:32:50.905Z,90.10
2018-09-08T01:33:56.637Z,90.20
2018-09-08T01:35:01.925Z,90.30
2018-09-08T01:36:07.091Z,90.50
2018-09-08T01:37:12.878Z,90.90
2018-09-08T01:38:19.747Z,90.70
2018-09-08T01:39:24.907Z,90.80
2018-09-08T01:40:30.316Z,90.90
2018-09-08T01:41:35.969Z,90.90
2018-09-08T01:42:41.057Z,91.10
2018-09-08T01:43:46.112Z,91.10
2018-09-08T01:44:51.308Z,91.10
2018-09-08T01:45:56.355Z,91.10
2018-09-08T01:47:01.634Z,91.10
2018-09-08T01:48:06.752Z,91.20
2018-09-08T01:49:12.874Z,91.20
2018-09-08T01:50:18.071Z,91.00
2018-09-08T01:51:23.492Z,91.00
2018-09-08T01:52:29.797Z,91.00
2018-09-08T01:53:35.033Z,91.10
2018-09-08T01:54:40.285Z,91.00
2018-09-08T01:55:45.519Z,91.10
2018-09-08T01:56:51.727Z,91.10
2018-09-08T01:57:57.685Z,91.10
2018-09-08T01:59:04.576Z,91.00
2018-09-08T02:00:10.731Z,90.80
2018-09-08T02:01:16.239Z,90.80
2018-09-08T02:02:21.562Z,90.90
2018-09-08T02:03:26.766Z,90.90
2018-09-08T02:04:31.824Z,90.60
2018-09-08T02:05:38.536Z,90.50
2018-09-08T02:06:44.296Z,90.60
2018-09-08T02:07:49.872Z,90.70
2018-09-08T02:08:55.635Z,90.50
2018-09-08T02:10:01.927Z,90.60
2018-09-08T02:11:07.352Z,90.70
2018-09-08T02:12:13.880Z,90.80
2018-09-08T02:13:18.945Z,91.10
2018-09-08T02:14:24.034Z,91.20
2018-09-08T02:15:30.061Z,91.30
2018-09-08T02:16:35.117Z,91.40
2018-09-08T02:17:40.436Z,91.40
2018-09-08T02:18:46.994Z,91.60
2018-09-08T02:19:52.790Z,91.60
2018-09-08T02:20:58.580Z,91.60
2018-09-08T02:22:03.728Z,91.70
2018-09-08T02:23:08.898Z,91.80
2018-09-08T02:24:14.024Z,91.90
2018-09-08T02:25:20.560Z,92.00
2018-09-08T02:26:26.578Z,92.00
2018-09-08T02:27:31.788Z,92.10
2018-09-08T02:28:37.736Z,92.00
2018-09-08T02:29:42.773Z,92.10
2018-09-08T02:30:49.231Z,92.00
2018-09-08T02:31:54.669Z,92.10
2018-09-08T02:33:00.594Z,92.00
2018-09-08T02:34:05.871Z,92.00
2018-09-08T02:35:11.037Z,92.00
2018-09-08T02:36:16.129Z,92.00
2018-09-08T02:37:21.582Z,91.90
2018-09-08T02:38:26.665Z,91.80
2018-09-08T02:39:31.874Z,91.70
2018-09-08T02:40:36.998Z,91.50
2018-09-08T02:41:42.151Z,91.60
2018-09-08T02:42:47.305Z,91.40
2018-09-08T02:43:52.432Z,91.30
2018-09-08T02:44:57.598Z,91.30
2018-09-08T02:46:02.949Z,91.20
2018-09-08T02:47:08.208Z,91.20
2018-09-08T02:48:13.393Z,91.30
2018-09-08T02:49:19.657Z,91.50
2018-09-08T02:50:32.084Z,91.50
2018-09-08T02:51:35.436Z,91.50
2018-09-08T02:52:38.775Z,91.60
2018-09-08T02:53:42.088Z,91.70
2018-09-08T02:54:45.321Z,91.80
2018-09-08T02:55:48.671Z,91.80
2018-09-08T02:56:52.760Z,91.80
2018-09-08T02:57:56.893Z,91.90
2018-09-08T02:59:01.222Z,92.00
2018-09-08T03:00:04.681Z,92.00
2018-09-08T03:01:08.244Z,91.90
2018-09-08T03:02:12.325Z,91.90
2018-09-08T03:03:15.652Z,92.00
2018-09-08T03:04:18.888Z,92.10
2018-09-08T03:05:22.324Z,92.20
2018-09-08T03:06:26.352Z,92.30
2018-09-08T03:07:30.319Z,92.30
2018-09-08T03:08:34.478Z,92.30
2018-09-08T03:09:37.723Z,92.20
2018-09-08T03:10:41.200Z,91.50
2018-09-08T03:11:44.412Z,91.90
2018-09-08T03:12:47.705Z,91.90
2018-09-08T03:13:51.291Z,91.70
2018-09-08T03:14:54.531Z,91.70
2018-09-08T03:15:57.796Z,91.70
2018-09-08T03:17:01.103Z,91.50
2018-09-08T03:18:04.692Z,91.40
2018-09-08T03:19:07.896Z,91.60
2018-09-08T03:20:11.112Z,91.40
2018-09-08T03:21:14.410Z,91.40
2018-09-08T03:22:17.618Z,91.40
2018-09-08T03:23:21.440Z,91.60
2018-09-08T03:24:24.740Z,91.50
2018-09-08T03:25:27.961Z,91.60
2018-09-08T03:26:31.392Z,91.70
2018-09-08T03:27:34.611Z,91.70
2018-09-08T03:28:37.864Z,91.80
2018-09-08T03:29:41.350Z,91.70
2018-09-08T03:30:44.892Z,91.70
2018-09-08T03:31:49.145Z,91.80
2018-09-08T03:32:52.297Z,91.70
2018-09-08T03:33:55.553Z,91.70
2018-09-08T03:34:58.708Z,91.70
2018-09-08T03:36:02.508Z,91.60
2018-09-08T03:37:06.390Z,91.70
2018-09-08T03:38:09.891Z,91.70
2018-09-08T03:39:13.065Z,91.60
2018-09-08T03:40:16.294Z,91.40
2018-09-08T03:41:19.615Z,91.40
2018-09-08T03:42:22.761Z,91.60
2018-09-08T03:43:26.047Z,91.90
2018-09-08T03:46:25.211Z,91.90
2018-09-08T03:47:29.141Z,92.00
2018-09-08T03:48:33.152Z,92.00
2018-09-08T03:49:36.363Z,91.80
2018-09-08T03:50:40.148Z,91.90
2018-09-08T03:51:43.601Z,91.90
2018-09-08T03:52:46.818Z,92.00
2018-09-08T03:53:50.058Z,92.10
2018-09-08T03:54:53.239Z,92.00
2018-09-08T03:55:56.664Z,92.00
2018-09-08T03:57:00.854Z,92.10
2018-09-08T03:58:04.039Z,92.30
2018-09-08T03:59:07.833Z,92.30
2018-09-08T04:00:11.071Z,92.10
2018-09-08T04:01:14.357Z,92.10
2018-09-08T04:02:17.541Z,92.30
2018-09-08T04:03:24.112Z,92.40
2018-09-08T04:04:29.650Z,92.60
2018-09-08T04:05:35.443Z,92.50
2018-09-08T04:06:40.513Z,92.40
2018-09-08T04:07:45.650Z,92.40
2018-09-08T04:08:50.700Z,92.60
2018-09-08T04:09:56.332Z,92.60
2018-09-08T04:11:01.808Z,92.70
2018-09-08T04:12:07.603Z,93.00
2018-09-08T04:13:12.648Z,93.00
2018-09-08T04:14:17.738Z,93.00
2018-09-08T04:15:24.450Z,93.00
2018-09-08T04:16:29.656Z,92.80
2018-09-08T04:17:35.053Z,92.80
2018-09-08T04:18:41.728Z,92.80
2018-09-08T04:19:46.922Z,92.90
2018-09-08T04:20:52.123Z,93.00
2018-09-08T04:21:57.976Z,92.90
2018-09-08T04:23:03.112Z,92.90
2018-09-08T04:24:08.409Z,92.90
2018-09-08T04:25:15.632Z,93.00
2018-09-08T04:26:21.660Z,93.00
2018-09-08T04:27:27.011Z,93.00
2018-09-08T04:28:32.811Z,93.00
2018-09-08T04:29:37.958Z,93.10
2018-09-08T04:30:43.339Z,92.90
2018-09-08T04:31:48.828Z,92.90
2018-09-08T04:32:53.911Z,92.90
2018-09-08T04:33:58.958Z,92.80
2018-09-08T04:35:04.104Z,92.70
2018-09-08T04:36:10.398Z,92.80
2018-09-08T04:37:15.739Z,92.90
2018-09-08T04:38:20.860Z,92.90
2018-09-08T04:39:27.081Z,93.20
2018-09-08T04:40:32.513Z,93.00
2018-09-08T04:41:38.630Z,92.80
2018-09-08T04:42:43.738Z,92.60
2018-09-08T04:43:48.993Z,92.50
2018-09-08T04:44:54.083Z,92.60
2018-09-08T04:45:59.300Z,92.60
2018-09-08T04:47:04.416Z,92.50
2018-09-08T04:48:09.920Z,92.60
2018-09-08T04:49:15.612Z,92.70
2018-09-08T04:50:20.799Z,92.70
2018-09-08T04:51:25.933Z,92.70
2018-09-08T04:52:31.020Z,92.70
2018-09-08T04:53:36.090Z,92.70
2018-09-08T04:54:42.320Z,92.70
2018-09-08T04:55:48.755Z,92.70
2018-09-08T04:56:54.119Z,92.70
2018-09-08T04:57:59.191Z,92.90
2018-09-08T04:59:04.400Z,93.00
2018-09-08T05:00:10.467Z,93.00
2018-09-08T05:01:16.220Z,93.00
2018-09-08T05:02:21.282Z,93.10
2018-09-08T05:03:27.611Z,93.20
2018-09-08T05:04:32.781Z,93.10
2018-09-08T05:05:37.856Z,93.10
2018-09-08T05:06:43.132Z,93.10
2018-09-08T05:07:48.427Z,93.10
2018-09-08T05:08:53.711Z,93.10
2018-09-08T05:09:59.221Z,93.00
2018-09-08T05:11:04.858Z,93.10
2018-09-08T05:12:10.958Z,93.10
2018-09-08T05:13:16.231Z,93.20
2018-09-08T05:14:21.515Z,93.10
2018-09-08T05:15:26.832Z,93.00
2018-09-08T05:16:33.727Z,93.00
2018-09-08T05:17:39.588Z,93.10
2018-09-08T05:18:44.868Z,93.20
2018-09-08T05:19:50.204Z,93.20
2018-09-08T05:20:55.409Z,93.30
2018-09-08T05:22:01.273Z,93.40
2018-09-08T05:23:06.355Z,93.50
2018-09-08T05:24:12.082Z,93.50
2018-09-08T05:25:18.140Z,93.50
2018-09-08T05:26:23.393Z,93.60
2018-09-08T05:27:29.492Z,93.60
2018-09-08T05:28:34.497Z,93.70
2018-09-08T05:29:40.479Z,93.80
2018-09-08T05:30:47.004Z,93.90
2018-09-08T05:31:52.713Z,93.80
2018-09-08T05:32:57.803Z,93.80
2018-09-08T05:34:02.873Z,93.60
2018-09-08T05:35:08.574Z,93.60
2018-09-08T05:36:13.753Z,93.60
2018-09-08T05:37:18.864Z,93.50
2018-09-08T05:38:23.875Z,93.50
2018-09-08T05:39:29.805Z,93.50
2018-09-08T05:40:35.323Z,93.60
2018-09-08T05:41:41.489Z,93.60
2018-09-08T05:42:47.045Z,93.50
2018-09-08T05:43:52.361Z,93.60
2018-09-08T05:44:57.879Z,93.60
2018-09-08T05:46:03.284Z,93.60
2018-09-08T05:47:08.724Z,93.60
2018-09-08T05:48:14.078Z,93.50
2018-09-08T05:49:19.423Z,93.60
2018-09-08T05:50:24.659Z,93.70
2018-09-08T05:51:30.008Z,93.80
2018-09-08T05:52:35.172Z,93.90
2018-09-08T05:53:40.679Z,93.90
2018-09-08T05:54:46.972Z,93.80
2018-09-08T05:55:52.061Z,93.80
2018-09-08T05:56:57.218Z,93.70
2018-09-08T05:58:02.607Z,93.70
2018-09-08T05:59:08.149Z,93.60
2018-09-08T06:00:13.832Z,93.60
2018-09-08T06:01:18.926Z,93.70
2018-09-08T06:02:24.240Z,93.80
2018-09-08T06:03:30.604Z,93.80
2018-09-08T06:04:35.715Z,93.90
2018-09-08T06:05:41.302Z,93.80
2018-09-08T06:06:49.713Z,93.90
2018-09-08T06:07:55.407Z,93.80
2018-09-08T06:09:01.354Z,93.80
2018-09-08T06:10:07.294Z,93.70
2018-09-08T06:11:12.428Z,93.70
2018-09-08T06:12:18.349Z,93.80
2018-09-08T06:13:23.374Z,93.80
2018-09-08T06:14:28.659Z,93.80
2018-09-08T06:15:34.173Z,93.90
2018-09-08T06:16:39.603Z,93.90
2018-09-08T06:17:44.689Z,93.90
2018-09-08T06:18:52.122Z,93.90
2018-09-08T06:19:57.432Z,93.80
2018-09-08T06:21:02.948Z,93.00
2018-09-08T06:22:08.521Z,93.80
2018-09-08T06:23:13.801Z,93.80
2018-09-08T06:24:18.986Z,93.80
2018-09-08T06:25:24.914Z,93.80
2018-09-08T06:26:29.976Z,93.70
2018-09-08T06:27:36.531Z,93.70
2018-09-08T06:28:42.202Z,93.70
2018-09-08T06:29:48.773Z,93.80
2018-09-08T06:30:53.968Z,93.80
2018-09-08T06:31:59.060Z,93.70
2018-09-08T06:33:05.287Z,93.80
2018-09-08T06:34:10.509Z,93.80
2018-09-08T06:35:15.924Z,93.80
2018-09-08T06:36:21.317Z,93.80
2018-09-08T06:37:26.949Z,93.70
2018-09-08T06:38:32.431Z,93.70
2018-09-08T06:39:38.005Z,93.60
2018-09-08T06:40:43.152Z,93.70
2018-09-08T06:41:48.812Z,93.70
2018-09-08T06:42:54.162Z,93.60
2018-09-08T06:43:59.499Z,93.70
2018-09-08T06:45:05.156Z,93.50
2018-09-08T06:46:11.602Z,93.50
2018-09-08T06:47:16.701Z,93.50
2018-09-08T06:48:22.491Z,93.50
2018-09-08T06:49:27.591Z,93.50
2018-09-08T06:50:32.971Z,93.30
2018-09-08T06:51:38.478Z,93.50
2018-09-08T06:52:43.613Z,93.50
2018-09-08T06:53:49.061Z,93.50
2018-09-08T06:54:54.329Z,93.40
2018-09-08T06:56:00.550Z,93.30
2018-09-08T06:57:05.861Z,93.30
2018-09-08T06:58:10.998Z,93.30
2018-09-08T06:59:16.416Z,93.30
2018-09-08T07:00:22.109Z,93.20
2018-09-08T07:01:27.727Z,93.20
2018-09-08T07:02:32.982Z,92.50
2018-09-08T07:03:38.622Z,93.10
2018-09-08T07:04:45.001Z,93.00
2018-09-08T07:05:51.393Z,92.90
2018-09-08T07:06:56.795Z,92.90
2018-09-08T07:08:02.907Z,92.90
2018-09-08T07:09:11.497Z,92.90
2018-09-08T07:10:17.093Z,92.90
2018-09-08T07:11:22.830Z,92.90
2018-09-08T07:12:28.694Z,92.90
2018-09-08T07:13:34.650Z,92.90
2018-09-08T07:14:41.936Z,92.90
2018-09-08T07:15:47.363Z,92.80
2018-09-08T07:16:52.855Z,92.70
2018-09-08T07:18:01.277Z,92.80
2018-09-08T07:19:08.048Z,92.80
2018-09-08T07:20:14.122Z,92.80
2018-09-08T07:21:20.541Z,92.80
2018-09-08T07:22:26.600Z,92.90
2018-09-08T07:23:33.899Z,92.70
2018-09-08T07:24:41.245Z,92.80
2018-09-08T07:25:46.668Z,92.70
2018-09-08T07:26:52.124Z,92.80
2018-09-08T07:27:58.095Z,92.80
2018-09-08T07:29:03.781Z,92.80
2018-09-08T07:30:09.425Z,92.70
2018-09-08T07:31:15.613Z,92.70
2018-09-08T07:32:21.792Z,92.80
2018-09-08T07:33:27.883Z,92.60
2018-09-08T07:34:35.568Z,92.60
2018-09-08T07:35:41.212Z,92.60
2018-09-08T07:36:46.868Z,92.60
2018-09-08T07:37:53.056Z,92.50
2018-09-08T07:39:00.276Z,92.50
2018-09-08T07:40:09.366Z,92.40
2018-09-08T07:41:14.971Z,92.20
2018-09-08T07:42:20.421Z,92.70
2018-09-08T07:43:26.102Z,92.10
2018-09-08T07:44:31.566Z,92.00
2018-09-08T07:45:36.917Z,91.90
2018-09-08T07:46:43.704Z,91.80
2018-09-08T07:47:51.196Z,91.90
2018-09-08T07:48:56.864Z,91.80
2018-09-08T07:50:04.014Z,91.70
2018-09-08T07:51:12.436Z,91.60
2018-09-08T07:52:18.187Z,91.60
2018-09-08T07:53:23.511Z,91.50
2018-09-08T07:54:29.785Z,91.40
2018-09-08T07:55:35.598Z,91.40
2018-09-08T07:56:41.147Z,91.20
2018-09-08T07:57:46.862Z,91.20
2018-09-08T07:58:54.112Z,91.00
2018-09-08T07:59:59.816Z,91.00
2018-09-08T08:01:05.594Z,91.10
2018-09-08T08:02:11.247Z,90.80
2018-09-08T08:03:39.800Z,90.80
2018-09-08T08:04:58.364Z,90.80
2018-09-08T08:06:06.794Z,90.70
2018-09-08T08:07:15.683Z,90.60
2018-09-08T08:08:31.881Z,90.60
2018-09-08T08:09:40.527Z,90.50
2018-09-08T08:10:46.174Z,90.50
2018-09-08T08:11:53.349Z,90.40
2018-09-08T08:12:58.995Z,90.40
2018-09-08T08:14:04.976Z,90.30
2018-09-08T08:15:10.658Z,90.10
2018-09-08T08:16:19.069Z,90.10
2018-09-08T08:17:25.205Z,90.00
2018-09-08T08:18:35.812Z,90.10
2018-09-08T08:19:45.255Z,90.00
2018-09-08T08:20:50.972Z,89.90
2018-09-08T08:21:58.031Z,90.00
2018-09-08T08:23:05.743Z,90.00
2018-09-08T08:24:12.474Z,90.10
2018-09-08T08:25:18.304Z,90.00
2018-09-08T08:26:23.742Z,89.80
2018-09-08T08:27:34.933Z,89.00
2018-09-08T08:28:51.829Z,88.30
2018-09-08T08:30:08.685Z,88.20
2018-09-08T08:31:19.618Z,87.80
2018-09-08T08:32:54.375Z,88.00
2018-09-08T08:34:01.702Z,88.00
2018-09-08T08:35:09.326Z,87.60
2018-09-08T08:36:15.976Z,87.70
2018-09-08T08:37:21.927Z,87.30
2018-09-08T08:38:29.480Z,87.10
2018-09-08T08:39:35.410Z,87.20
2018-09-08T08:40:42.505Z,86.60
2018-09-08T08:42:03.514Z,86.60
2018-09-08T08:43:11.245Z,86.40
2018-09-08T08:44:17.418Z,85.50
2018-09-08T08:45:22.858Z,86.00
2018-09-08T08:46:28.518Z,84.80
2018-09-08T08:47:35.345Z,85.50
2018-09-08T08:48:41.704Z,85.20
2018-09-08T08:49:52.645Z,85.10
2018-09-08T08:51:11.371Z,84.50
2018-09-08T08:52:30.980Z,84.00
2018-09-08T08:53:49.480Z,83.80
2018-09-08T08:54:59.054Z,83.80
2018-09-08T08:56:07.288Z,83.80
2018-09-08T08:57:28.831Z,83.70
2018-09-08T08:58:39.346Z,83.40
2018-09-08T08:59:50.439Z,83.70
2018-09-08T09:01:01.987Z,83.80
2018-09-08T09:02:38.423Z,83.50
2018-09-08T09:03:46.570Z,82.70
2018-09-08T09:04:55.243Z,82.60
2018-09-08T09:06:02.028Z,82.60
2018-09-08T09:07:13.779Z,83.00
2018-09-08T09:08:25.162Z,83.20
2018-09-08T09:09:32.895Z,80.60
2018-09-08T09:10:45.154Z,81.00
2018-09-08T09:11:52.755Z,80.50
2018-09-08T09:13:02.881Z,79.10
2018-09-08T09:14:10.486Z,78.40
2018-09-08T09:15:21.527Z,79.10
2018-09-08T09:16:31.275Z,78.90
2018-09-08T09:17:45.503Z,79.20
2018-09-08T09:19:01.866Z,78.50
2018-09-08T09:20:18.168Z,78.40
2018-09-08T09:22:13.141Z,78.30
2018-09-08T09:23:35.851Z,77.90
2018-09-08T09:25:00.580Z,77.30
2018-09-08T09:26:08.349Z,77.40
2018-09-08T09:27:23.735Z,76.70
2018-09-08T09:28:34.139Z,76.60
2018-09-08T09:29:45.603Z,75.40
2018-09-08T09:30:54.412Z,75.30
2018-09-08T09:32:09.192Z,75.20
2018-09-08T09:33:18.729Z,75.20
2018-09-08T09:34:39.889Z,75.10
2018-09-08T09:35:47.080Z,74.50
2018-09-08T09:36:57.242Z,74.40
2018-09-08T09:39:05.531Z,74.20
2018-09-08T09:40:15.624Z,74.20
2018-09-08T09:41:32.408Z,74.40
2018-09-08T09:42:39.769Z,72.30
2018-09-08T09:43:52.453Z,70.80
2018-09-08T09:45:05.818Z,70.70
2018-09-08T09:46:13.829Z,71.60
2018-09-08T09:47:20.697Z,71.90
2018-09-08T09:48:29.585Z,72.00
2018-09-08T09:49:36.668Z,70.50
2018-09-08T09:50:43.245Z,69.20
2018-09-08T09:51:49.520Z,68.30
2018-09-08T09:53:00.909Z,69.70
2018-09-08T09:54:08.005Z,70.00
2018-09-08T09:55:14.127Z,69.10
2018-09-08T09:56:20.739Z,68.30
2018-09-08T09:57:27.538Z,68.50
2018-09-08T09:58:33.203Z,69.10
2018-09-08T09:59:39.247Z,69.50
2018-09-08T10:00:57.828Z,68.50
2018-09-08T10:03:14.114Z,68.10
2018-09-08T10:04:21.917Z,68.20
2018-09-08T10:05:29.858Z,68.30
2018-09-08T10:06:37.255Z,68.10
2018-09-08T10:07:45.206Z,66.60
2018-09-08T10:10:34.430Z,65.50
2018-09-08T10:11:42.375Z,65.10
2018-09-08T10:12:49.230Z,64.30
2018-09-08T10:13:56.334Z,64.50
2018-09-08T10:15:01.926Z,63.30
2018-09-08T10:16:07.535Z,63.10
2018-09-08T10:17:14.097Z,63.60
2018-09-08T10:18:19.385Z,63.50
2018-09-08T10:19:26.513Z,62.10
2018-09-08T10:20:35.044Z,61.80
2018-09-08T10:21:42.537Z,62.40
2018-09-08T10:22:48.016Z,62.40
2018-09-08T10:24:05.145Z,62.90
2018-09-08T10:24:59.271Z,62.70
2018-09-08T10:26:05.735Z,60.10
2018-09-08T10:27:13.032Z,61.00
2018-09-08T10:28:19.025Z,60.80
2018-09-08T10:29:24.268Z,60.20
2018-09-08T10:30:31.150Z,60.30
2018-09-08T10:31:36.576Z,60.80
2018-09-08T10:32:42.925Z,60.70
2018-09-08T10:33:48.850Z,59.30
2018-09-08T10:35:01.780Z,57.20
2018-09-08T10:36:08.256Z,57.30
2018-09-08T10:37:16.329Z,57.10
2018-09-08T10:38:21.837Z,55.90
2018-09-08T10:39:27.786Z,55.80
2018-09-08T10:40:33.260Z,55.40
2018-09-08T10:41:40.230Z,55.10
2018-09-08T10:42:46.112Z,54.20
2018-09-08T10:43:53.806Z,54.50
2018-09-08T10:45:01.339Z,54.60
2018-09-08T10:46:07.684Z,54.90
2018-09-08T10:47:14.339Z,54.80
2018-09-08T10:48:21.157Z,55.10
2018-09-08T10:49:27.478Z,55.20
2018-09-08T10:50:33.400Z,54.70
2018-09-08T10:51:54.265Z,54.30
2018-09-08T10:53:01.903Z,54.60
2018-09-08T10:54:09.166Z,54.70
2018-09-08T10:55:16.436Z,54.10
2018-09-08T10:56:21.926Z,53.80
2018-09-08T10:57:27.496Z,54.50
2018-09-08T10:58:33.028Z,53.30
2018-09-08T10:59:38.913Z,53.30
2018-09-08T11:00:44.574Z,53.00
2018-09-08T11:01:50.275Z,53.30
2018-09-08T11:02:55.996Z,53.50
2018-09-08T11:04:02.734Z,53.80
2018-09-08T11:05:10.688Z,54.20
2018-09-08T11:06:16.369Z,54.20
2018-09-08T11:07:21.810Z,54.30
2018-09-08T11:08:27.204Z,54.60
2018-09-08T11:09:35.065Z,55.00
2018-09-08T11:10:42.619Z,55.90
2018-09-08T11:11:48.640Z,56.10
2018-09-08T11:12:54.519Z,55.20
2018-09-08T11:14:00.160Z,53.90
2018-09-08T11:15:08.082Z,53.40
2018-09-08T11:16:14.949Z,52.70
2018-09-08T11:17:22.584Z,53.00
2018-09-08T11:18:28.095Z,54.20
2018-09-08T11:19:33.570Z,54.00
2018-09-08T11:20:39.768Z,54.10
2018-09-08T11:21:46.116Z,54.90
2018-09-08T11:22:52.323Z,55.00
2018-09-08T11:23:58.446Z,55.10
2018-09-08T11:25:05.325Z,55.50
2018-09-08T11:26:11.573Z,56.20
2018-09-08T11:27:18.073Z,55.90
2018-09-08T11:28:24.259Z,55.20
2018-09-08T11:29:32.148Z,53.70
2018-09-08T11:30:48.976Z,52.90
2018-09-08T11:31:54.779Z,52.80
2018-09-08T11:33:00.926Z,53.50
2018-09-08T11:34:06.423Z,54.00
2018-09-08T11:35:17.222Z,54.30
2018-09-08T11:36:23.451Z,54.80
2018-09-08T11:37:28.951Z,55.00
2018-09-08T11:38:34.571Z,55.30
2018-09-08T11:39:39.999Z,55.30
2018-09-08T11:40:47.760Z,55.10
2018-09-08T11:41:53.593Z,53.70
2018-09-08T11:43:00.113Z,53.10
2018-09-08T11:44:06.456Z,50.00
2018-09-08T11:45:12.657Z,47.10
2018-09-08T11:46:17.945Z,42.50
2018-09-08T11:47:24.536Z,39.60
2018-09-08T11:48:29.943Z,35.90
2018-09-08T11:49:35.756Z,33.90
2018-09-08T11:50:41.879Z,31.50
2018-09-08T11:51:51.358Z,38.40
2018-09-08T11:52:56.766Z,28.40
2018-09-08T11:54:02.402Z,26.80
2018-09-08T11:55:08.461Z,25.20
2018-09-08T11:56:15.694Z,24.00
2018-09-08T11:57:22.056Z,23.90
2018-09-08T12:00:08.994Z,22.50
2018-09-08T12:01:14.489Z,22.30
2018-09-08T12:03:25.214Z,23.20
2018-09-08T12:04:31.136Z,22.80
2018-09-08T12:05:37.295Z,22.80
2018-09-08T12:06:42.850Z,22.20
2018-09-08T12:07:50.479Z,22.90
2018-09-08T12:08:55.996Z,23.50
2018-09-08T12:10:01.742Z,23.80
2018-09-08T12:11:09.135Z,23.40
2018-09-08T12:12:15.774Z,22.80
2018-09-08T12:13:21.668Z,22.20
2018-09-08T12:14:27.154Z,22.10
2018-09-08T12:15:32.798Z,21.70
2018-09-08T12:16:39.182Z,21.30
2018-09-08T12:17:44.940Z,20.80
2018-09-08T12:18:51.607Z,20.60
2018-09-08T12:19:57.413Z,20.00
2018-09-08T12:21:06.742Z,19.80
2018-09-08T12:22:12.705Z,20.10
2018-09-08T12:23:18.228Z,20.10
2018-09-08T12:24:23.751Z,20.40
2018-09-08T12:25:29.218Z,20.10
2018-09-08T12:26:35.445Z,20.10
2018-09-08T12:27:41.865Z,19.40
2018-09-08T12:28:47.230Z,19.80
2018-09-08T12:29:53.838Z,20.20
2018-09-08T12:30:59.494Z,20.40
2018-09-08T12:32:05.673Z,20.30
2018-09-08T12:33:13.081Z,20.40
2018-09-08T12:34:19.179Z,20.00
2018-09-08T12:35:25.068Z,20.20
2018-09-08T12:36:32.003Z,20.40
2018-09-08T12:37:38.012Z,19.50
2018-09-08T12:39:48.899Z,17.80
2018-09-08T12:40:56.426Z,18.30
2018-09-08T12:42:03.652Z,17.70
2018-09-08T12:43:09.201Z,18.20
2018-09-08T12:44:18.366Z,17.30
2018-09-08T12:45:23.854Z,17.10
2018-09-08T12:46:35.232Z,17.20
2018-09-08T12:47:42.757Z,17.10
2018-09-08T12:48:48.335Z,17.10
2018-09-08T12:49:56.551Z,17.50
2018-09-08T12:51:02.790Z,17.70
2018-09-08T12:52:08.743Z,18.50
2018-09-08T12:53:14.560Z,19.40
2018-09-08T12:54:24.636Z,18.90
2018-09-08T12:55:30.146Z,18.90
2018-09-08T12:56:36.023Z,20.00
2018-09-08T12:57:42.900Z,20.20
2018-09-08T12:58:49.762Z,20.90
2018-09-08T12:59:55.747Z,21.60
2018-09-08T13:01:04.252Z,22.60
2018-09-08T13:02:13.651Z,23.60
2018-09-08T13:03:19.368Z,24.70
2018-09-08T13:04:24.849Z,26.10
2018-09-08T13:05:32.966Z,26.60
2018-09-08T13:06:39.308Z,27.70
2018-09-08T13:07:49.497Z,28.10
2018-09-08T13:10:15.536Z,29.00
2018-09-08T13:11:24.301Z,29.10
2018-09-08T13:12:47.094Z,29.50
2018-09-08T13:13:54.278Z,29.90
2018-09-08T13:15:00.569Z,30.90
2018-09-08T13:17:02.390Z,31.40
2018-09-08T13:18:07.889Z,31.80
2018-09-08T13:19:17.349Z,32.30
2018-09-08T13:20:25.822Z,32.60
2018-09-08T13:21:32.333Z,33.30
2018-09-08T13:22:41.056Z,33.60
2018-09-08T13:23:47.119Z,33.70
2018-09-08T13:24:53.783Z,34.20
2018-09-08T13:25:59.355Z,33.90
2018-09-08T13:27:06.201Z,34.30
2018-09-08T13:28:12.193Z,35.80
2018-09-08T13:29:18.361Z,36.10
2018-09-08T13:30:24.188Z,36.00
2018-09-08T13:31:30.355Z,35.10
2018-09-08T13:32:35.961Z,36.60
2018-09-08T13:33:42.239Z,35.70
2018-09-08T13:34:49.241Z,35.80
2018-09-08T13:35:55.865Z,35.30
2018-09-08T13:37:03.284Z,36.60
2018-09-08T13:38:09.036Z,35.90
2018-09-08T13:39:15.693Z,35.70
2018-09-08T13:40:23.413Z,36.10
2018-09-08T13:41:30.607Z,36.60
2018-09-08T13:42:36.304Z,36.40
2018-09-08T13:43:43.412Z,36.10
2018-09-08T13:44:50.278Z,36.00
2018-09-08T13:46:00.349Z,36.20
2018-09-08T13:48:46.858Z,36.80
2018-09-08T13:49:55.265Z,35.60
2018-09-08T13:51:05.395Z,36.00
2018-09-08T13:52:13.505Z,35.90
2018-09-08T13:53:24.260Z,35.90
2018-09-08T13:54:31.039Z,35.90
2018-09-08T13:55:37.905Z,36.00
2018-09-08T13:56:44.054Z,36.20
2018-09-08T13:57:50.624Z,36.70
2018-09-08T13:58:57.656Z,36.50
2018-09-08T14:00:06.555Z,35.90
2018-09-08T14:01:13.293Z,36.20
2018-09-08T14:02:19.872Z,36.10
2018-09-08T14:03:27.208Z,36.60
2018-09-08T14:04:35.910Z,36.90
2018-09-08T14:05:42.262Z,36.90
2018-09-08T14:06:48.134Z,37.00
2018-09-08T14:07:56.122Z,37.30
2018-09-08T14:09:02.567Z,37.00
2018-09-08T14:10:09.425Z,37.20
2018-09-08T14:11:16.503Z,37.10
2018-09-08T14:12:23.196Z,37.50
2018-09-08T14:13:28.857Z,37.50
2018-09-08T14:14:35.105Z,37.80
2018-09-08T14:15:41.332Z,37.20
2018-09-08T14:16:47.717Z,38.00
2018-09-08T14:17:53.540Z,37.70
2018-09-08T14:18:59.168Z,37.50
2018-09-08T14:20:06.590Z,38.60
2018-09-08T14:21:11.861Z,38.10
2018-09-08T14:22:18.895Z,38.10
2018-09-08T14:23:24.374Z,38.30
2018-09-08T14:24:29.961Z,38.80
2018-09-08T14:25:38.178Z,38.90
2018-09-08T14:26:46.792Z,39.00
2018-09-08T14:27:53.377Z,39.00
2018-09-08T14:28:59.819Z,38.00
2018-09-08T14:30:06.772Z,37.80
2018-09-08T14:31:12.457Z,37.60
2018-09-08T14:32:19.417Z,37.70